Terminal Aerodrome Forecast
Issued by NWS North Platte, NE

Home | Current Version | Previous Version | Text Only | Print | Product List | Glossary Off
Versions: 1 2 3 4 5 6 7 8 9 10 11 12 13 14

107
FTUS43 KLBF 031720
TAFVTN
TAF
KVTN 031720Z 0318/0418 30009KT P6SM SCT250
     FM040000 27007KT P6SM SCT200=

USA.gov is the U.S. government's official web portal to all federal, state and local government web resources and services.